createdAt,value
2018-03-15T00:01:46.818Z,12.58
2018-03-15T00:07:37.439Z,11.35
2018-03-15T00:13:28.060Z,14.54
2018-03-15T00:19:18.696Z,16.38
2018-03-15T00:25:09.211Z,12.78
2018-03-15T00:30:59.865Z,15.74
2018-03-15T00:36:50.459Z,18.65
2018-03-15T00:42:41.136Z,16.51
2018-03-15T00:48:31.765Z,12.36
2018-03-15T00:54:22.303Z,11.16
2018-03-15T01:00:13.019Z,13.6
2018-03-15T01:06:03.550Z,10.46
2018-03-15T01:11:54.178Z,11.7
2018-03-15T01:17:44.795Z,9.4
2018-03-15T01:23:35.406Z,7.9
2018-03-15T01:29:26.014Z,9.84
2018-03-15T01:35:16.624Z,11.71
2018-03-15T01:41:07.293Z,14.41
2018-03-15T01:46:57.906Z,10.49
2018-03-15T01:52:48.487Z,12.59
2018-03-15T01:58:39.101Z,10.03
2018-03-15T02:04:29.733Z,11.44
2018-03-15T02:10:20.357Z,10.54
2018-03-15T02:16:10.967Z,14.4
2018-03-15T02:22:01.506Z,14.07
2018-03-15T02:27:52.093Z,13.78
2018-03-15T02:33:42.780Z,18.98
2018-03-15T02:39:33.308Z,18.98
2018-03-15T02:45:24.014Z,13.35
2018-03-15T02:51:14.619Z,18.09
2018-03-15T02:57:05.246Z,12.54
2018-03-15T03:02:55.823Z,14.36
2018-03-15T03:08:46.405Z,10.39
2018-03-15T03:14:36.978Z,9.6
2018-03-15T03:20:27.599Z,11.3
2018-03-15T03:26:18.185Z,7.89
2018-03-15T03:32:08.821Z,14.1
2018-03-15T03:37:59.446Z,12.38
2018-03-15T03:43:50.009Z,10.52
2018-03-15T03:49:40.651Z,8.54
2018-03-15T03:55:31.242Z,8.09
2018-03-15T04:01:21.828Z,13.94
2018-03-15T04:07:12.529Z,11.13
2018-03-15T04:13:03.110Z,13.47
2018-03-15T04:18:53.696Z,12.8
2018-03-15T04:24:44.263Z,14.77
2018-03-15T04:30:34.868Z,10.44
2018-03-15T04:36:25.491Z,11.42
2018-03-15T04:42:16.106Z,16.51
2018-03-15T04:48:06.686Z,14.39
2018-03-15T04:53:57.300Z,17.5
2018-03-15T04:59:47.897Z,16.55
2018-03-15T05:05:38.492Z,10.97
2018-03-15T05:11:29.142Z,11.88
2018-03-15T05:17:19.772Z,13.48
2018-03-15T05:23:10.378Z,11.71
2018-03-15T05:29:00.945Z,10.68
2018-03-15T05:34:51.555Z,11.04
2018-03-15T05:40:42.176Z,11.56
2018-03-15T05:46:32.758Z,12.06
2018-03-15T05:52:23.380Z,7.19
2018-03-15T05:58:13.950Z,10.33
2018-03-15T06:04:04.589Z,13.46
2018-03-15T06:09:55.193Z,15.3
2018-03-15T06:15:45.788Z,8.84
2018-03-15T06:21:36.493Z,13.63
2018-03-15T06:27:27.041Z,17.05
2018-03-15T06:33:17.624Z,8.83
2018-03-15T06:39:08.288Z,18.96
2018-03-15T06:44:58.894Z,12.51
2018-03-15T06:50:49.554Z,17.37
2018-03-15T06:56:40.123Z,23.62
2018-03-15T07:02:30.770Z,15.95
2018-03-15T07:08:21.377Z,12.67
2018-03-15T07:14:11.978Z,20.15
2018-03-15T07:20:02.737Z,32.42
2018-03-15T07:25:53.212Z,46.84
2018-03-15T07:31:43.867Z,59.24
2018-03-15T07:37:34.502Z,76.96
2018-03-15T07:43:25.175Z,55.24
2018-03-15T07:49:15.787Z,41.1
2018-03-15T07:55:06.377Z,30.33
2018-03-15T08:00:56.979Z,22.35
2018-03-15T08:06:47.624Z,16.09
2018-03-15T08:12:38.324Z,14.15
2018-03-15T08:18:28.965Z,8.48
2018-03-15T08:24:19.640Z,14.93
2018-03-15T08:30:10.231Z,21.02
2018-03-15T08:36:00.832Z,11.25
2018-03-15T08:41:51.471Z,12.63
2018-03-15T08:47:42.062Z,14.88
2018-03-15T08:53:32.779Z,17.38
2018-03-15T08:59:23.357Z,14.73
2018-03-15T09:05:14.035Z,10.59
2018-03-15T09:11:04.706Z,12.73
2018-03-15T09:16:55.292Z,12
2018-03-15T09:22:45.953Z,10.2
2018-03-15T09:28:36.537Z,9.25
2018-03-15T09:34:27.323Z,6.87
2018-03-15T09:40:17.867Z,6.69
2018-03-15T09:46:08.624Z,8.2
2018-03-15T09:51:59.300Z,8.09
2018-03-15T09:57:49.865Z,12.18
2018-03-15T10:03:40.526Z,8.34
2018-03-15T10:09:31.128Z,11.88
2018-03-15T10:15:21.779Z,10.08
2018-03-15T10:21:12.443Z,7.46
2018-03-15T10:27:03.117Z,8.22
2018-03-15T10:32:53.779Z,3.75
2018-03-15T10:38:44.490Z,7.65
2018-03-15T10:44:35.101Z,9
2018-03-15T10:50:25.733Z,5.08
2018-03-15T10:56:16.482Z,10
2018-03-15T11:02:07.039Z,8.77
2018-03-15T11:07:57.688Z,28.56
2018-03-15T11:13:48.392Z,18.7
2018-03-15T11:19:38.983Z,11.55
2018-03-15T11:25:29.694Z,34.15
2018-03-15T11:31:20.327Z,19.42
2018-03-15T11:37:11.004Z,35.27
2018-03-15T11:43:01.596Z,14.55
2018-03-15T11:48:52.295Z,5.01
2018-03-15T11:54:42.953Z,9.63
2018-03-15T12:00:33.644Z,9.8
2018-03-15T12:06:24.304Z,9.09
2018-03-15T12:12:14.888Z,6.6
2018-03-15T12:18:05.535Z,10.72
2018-03-15T12:23:56.229Z,9.21
2018-03-15T12:29:46.875Z,6.41
2018-03-15T12:35:37.472Z,11.38
2018-03-15T12:41:28.149Z,13.93
2018-03-15T12:47:18.833Z,4.05
2018-03-15T12:53:09.438Z,9.45
2018-03-15T12:59:00.099Z,11
2018-03-15T13:04:50.789Z,9.48
2018-03-15T13:10:41.437Z,20.52
2018-03-15T13:16:32.047Z,10.9
2018-03-15T13:22:22.703Z,8.33
2018-03-15T13:28:13.386Z,5.59
2018-03-15T13:34:04.008Z,9.59
2018-03-15T13:39:54.691Z,6.16
2018-03-15T13:45:45.282Z,6.49
2018-03-15T13:51:35.965Z,10.19
2018-03-15T13:57:26.578Z,8.93
2018-03-15T14:03:17.266Z,8.02
2018-03-15T14:09:07.878Z,10.91
2018-03-15T14:14:58.561Z,4.99
2018-03-15T14:20:49.181Z,7.45
2018-03-15T14:26:39.807Z,5.67
2018-03-15T14:32:30.505Z,8.99
2018-03-15T14:38:21.120Z,9.95
2018-03-15T14:44:11.831Z,12.9
2018-03-15T14:50:02.444Z,5.1
2018-03-15T14:55:53.055Z,5.13
2018-03-15T15:01:43.691Z,5.66
2018-03-15T15:07:34.347Z,9.45
2018-03-15T15:13:25.000Z,10.41
2018-03-15T15:19:15.660Z,7.65
2018-03-15T15:25:06.355Z,5.45
2018-03-15T15:30:56.919Z,5.79
2018-03-15T15:36:47.622Z,6.26
2018-03-15T15:42:38.262Z,10.14
2018-03-15T15:48:28.885Z,7.12
2018-03-15T15:54:19.523Z,9.9
2018-03-15T16:00:10.185Z,18.56
2018-03-15T16:06:00.805Z,7.96
2018-03-15T16:11:51.524Z,12.25
2018-03-15T16:17:42.125Z,9.48
2018-03-15T16:23:32.755Z,7.65
2018-03-15T16:29:23.419Z,8.28
2018-03-15T16:35:14.030Z,17.67
2018-03-15T16:41:04.686Z,13.09
2018-03-15T16:46:55.369Z,8.99
2018-03-15T16:52:46.007Z,9.16
2018-03-15T16:58:36.644Z,11.48
2018-03-15T17:04:27.262Z,5.02
2018-03-15T17:10:17.982Z,7.03
2018-03-15T17:16:08.563Z,4.61
2018-03-15T17:21:59.304Z,6.42
2018-03-15T17:27:49.915Z,11.76
2018-03-15T17:33:40.518Z,13.6
2018-03-15T17:39:31.175Z,9.43
2018-03-15T17:45:21.818Z,7.05
2018-03-15T17:51:12.477Z,5.03
2018-03-15T17:57:03.089Z,10.04
2018-03-15T18:02:53.723Z,11.83
2018-03-15T18:08:44.373Z,12.23
2018-03-15T18:14:35.035Z,15.84
2018-03-15T18:20:25.677Z,13.42
2018-03-15T18:26:16.352Z,9.01
2018-03-15T18:32:06.998Z,14.16
2018-03-15T18:37:57.618Z,17.73
2018-03-15T18:43:48.325Z,10.48
2018-03-15T18:49:38.937Z,10.96
2018-03-15T18:55:29.555Z,9.1
2018-03-15T19:01:20.292Z,8.18
2018-03-15T19:07:10.826Z,6.68
2018-03-15T19:13:01.526Z,7.06
2018-03-15T19:18:52.129Z,13.85
2018-03-15T19:24:42.777Z,8.81
2018-03-15T19:30:33.446Z,11.33
2018-03-15T19:36:24.068Z,10.83
2018-03-15T19:42:14.776Z,6.02
2018-03-15T19:48:05.380Z,7.01
2018-03-15T19:53:56.030Z,6.46
2018-03-15T19:59:46.718Z,7.14
2018-03-15T20:05:37.318Z,7.35
2018-03-15T20:11:28.017Z,12.8
2018-03-15T20:17:18.666Z,12.25
2018-03-15T20:23:09.266Z,7.97
2018-03-15T20:28:59.907Z,10.05
2018-03-15T20:34:50.606Z,11.97
2018-03-15T20:40:41.200Z,14.1
2018-03-15T20:46:31.865Z,9.93
2018-03-15T20:52:22.507Z,8.09
2018-03-15T20:58:13.160Z,10.55
2018-03-15T21:04:03.813Z,13.51
2018-03-15T21:09:54.466Z,12.13
2018-03-15T21:15:45.170Z,16.77
2018-03-15T21:21:35.791Z,6.59
2018-03-15T21:27:26.441Z,5.38
2018-03-15T21:33:17.023Z,5.89
2018-03-15T21:39:07.694Z,14.55
2018-03-15T21:44:58.354Z,8.93
2018-03-15T21:50:48.996Z,8
2018-03-15T21:56:39.712Z,8.31
2018-03-15T22:02:30.321Z,5.67
2018-03-15T22:08:20.965Z,6.79
2018-03-15T22:14:11.607Z,9.1
2018-03-15T22:20:02.229Z,10.47
2018-03-15T22:25:52.866Z,6.79
2018-03-15T22:31:43.512Z,7.99
2018-03-15T22:37:34.192Z,4.97
2018-03-15T22:43:24.878Z,7.25
2018-03-15T22:49:15.527Z,8.5
2018-03-15T22:55:06.221Z,7.94
2018-03-15T23:00:56.765Z,8.57
2018-03-15T23:06:47.407Z,7.32
2018-03-15T23:12:38.079Z,6.92
2018-03-15T23:18:28.749Z,8.36
2018-03-15T23:24:19.355Z,14.05
2018-03-15T23:30:09.978Z,10.72
2018-03-15T23:36:00.648Z,21.01
2018-03-15T23:41:51.271Z,20.04
2018-03-15T23:47:41.967Z,23.48
2018-03-15T23:53:32.565Z,14.96
2018-03-15T23:59:23.200Z,17.32
